Date,TemperatureHighF,TemperatureAvgF,TemperatureLowF,DewpointHighF,DewpointAvgF,DewpointLowF,HumidityHigh,HumidityAvg,HumidityLow,PressureMaxIn,PressureMinIn,WindSpeedMaxMPH,WindSpeedAvgMPH,GustSpeedMaxMPH,PrecipitationSumIn
2013-1-1,41,38,33,29,27,22,70,64,59,30.00,29.89,8,3,13,0.00
2013-1-2,33,29,25,23,15,11,66,56,45,30.20,29.98,10,3,13,0.00
2013-1-3,37,28,18,21,15,10,72,58,46,30.21,30.09,12,2,19,0.00
2013-1-4,39,35,32,22,20,19,60,55,48,30.17,30.06,14,8,23,0.00
2013-1-5,43,36,31,24,21,18,70,55,44,30.34,30.11,13,3,20,0.00
2013-1-6,46,38,31,29,26,22,73,62,50,30.15,29.99,5,1,10,0.00
2013-1-7,42,38,28,29,25,20,71,61,53,30.41,30.11,9,3,15,0.00
2013-1-8,48,34,23,32,24,17,78,69,52,30.38,30.30,3,0,6,0.00
2013-1-9,49,36,26,39,28,20,80,72,52,30.35,30.18,6,1,10,0.00
2013-1-10,49,43,36,31,28,25,67,55,45,30.58,30.35,8,2,14,0.00
2013-1-11,45,40,35,39,32,27,86,72,60,30.45,30.08,6,1,14,0.23
2013-1-12,57,45,39,46,39,34,85,81,67,30.15,30.06,3,0,5,0.01
2013-1-13,55,47,41,50,43,36,85,84,80,30.07,29.92,4,1,7,0.01
2013-1-14,54,48,39,50,39,30,85,70,53,30.30,29.91,12,4,16,0.22
2013-1-15,40,38,34,34,31,27,82,75,64,30.33,30.14,6,2,10,0.56
2013-1-16,43,36,33,35,31,28,88,83,74,30.14,29.85,6,1,11,0.89
2013-1-17,43,39,35,34,28,25,74,64,51,30.12,29.95,10,2,16,0.03
2013-1-18,37,32,27,26,15,9,69,50,37,30.47,30.03,21,6,31,0.01
2013-1-19,58,42,29,28,23,15,66,49,26,30.33,29.88,10,5,18,0.01
2013-1-20,53,43,30,31,20,12,54,42,22,30.06,29.78,16,6,25,0.00
2013-1-21,40,31,25,20,15,6,65,52,39,30.08,29.80,15,4,27,0.00
2013-1-22,24,17,13,7,-2,-6,52,41,31,30.24,29.94,15,8,28,0.00
2013-1-23,24,17,9,4,-1,-3,60,44,31,30.29,30.09,9,3,17,0.00
2013-1-24,26,20,14,10,5,-1,75,55,38,30.47,30.06,17,5,24,0.00
2013-1-25,21,18,14,13,7,-1,76,62,43,30.47,30.02,4,1,11,0.00
2013-1-26,30,24,18,21,17,12,78,74,67,30.39,30.03,2,0,4,0.07
2013-1-27,35,29,19,20,16,11,72,60,45,30.55,30.39,4,1,7,0.01
2013-1-28,40,34,29,35,28,20,83,78,63,30.42,30.01,5,1,9,0.21
2013-1-29,67,54,40,54,45,35,86,74,61,30.09,29.92,4,1,9,0.01
2013-1-30,69,50,37,61,45,32,88,83,71,29.92,29.22,14,3,25,1.27
2013-1-31,56,35,27,52,19,10,85,52,42,29.85,29.19,20,10,34,1.24
2013-2-1,30,24,18,19,9,3,77,52,41,30.32,29.80,18,8,29,0.01
2013-2-2,27,21,14,19,9,3,78,60,46,30.33,29.97,11,2,15,0.00
2013-2-3,34,27,21,25,20,15,80,73,53,29.97,29.78,12,2,20,0.01
2013-2-4,35,29,24,26,15,9,81,57,42,30.05,29.85,13,4,23,0.01
2013-2-5,35,32,30,29,27,25,82,80,77,29.90,29.82,3,1,6,0.06
2013-2-6,39,34,29,28,23,17,83,66,51,30.32,29.90,10,3,16,0.02
2013-2-7,38,32,23,25,20,16,74,62,49,30.40,30.18,5,1,11,0.01
2013-2-8,39,35,32,33,27,20,82,72,60,30.18,29.76,18,5,28,0.02
2013-2-9,38,31,26,20,16,13,62,53,38,30.36,29.93,23,10,31,0.01
2013-2-10,44,33,18,21,16,10,80,52,33,30.42,30.15,7,2,17,0.00
2013-2-11,62,46,36,45,34,20,83,66,26,30.15,29.64,14,4,24,0.16
2013-2-12,53,45,35,29,26,24,65,48,38,29.98,29.82,15,6,24,0.01
2013-2-13,42,34,28,31,26,21,88,72,57,29.92,29.65,7,1,11,0.01
2013-2-14,49,39,30,31,27,22,83,62,46,29.98,29.75,6,1,10,0.14
2013-2-15,52,40,32,35,30,23,81,67,47,30.01,29.92,10,2,15,0.12
2013-2-16,36,34,28,29,23,15,81,65,48,29.97,29.84,10,4,17,0.09
2013-2-17,30,26,23,17,11,5,68,54,41,30.18,29.83,17,8,29,0.00
2013-2-18,41,30,17,16,9,4,58,43,29,30.33,30.07,11,3,19,0.00
2013-2-19,49,39,29,39,26,16,79,60,42,30.07,29.63,12,5,22,0.22
2013-2-20,34,29,25,21,13,8,59,50,44,30.13,29.83,16,10,29,0.12
2013-2-21,34,27,24,16,12,9,62,54,46,30.30,30.09,14,5,19,0.00
2013-2-22,33,30,25,26,21,14,76,69,54,30.34,30.16,5,1,10,0.00
2013-2-23,40,35,33,35,29,26,81,77,74,30.16,29.80,3,1,8,0.02
2013-2-24,46,37,28,34,26,17,83,66,47,30.10,29.78,16,5,23,0.01
2013-2-25,47,36,27,25,21,17,67,54,38,30.19,30.09,5,1,12,0.00
2013-2-26,40,36,29,35,28,20,83,72,57,30.17,29.64,9,2,19,0.88
2013-2-27,51,43,37,38,33,31,84,70,52,29.66,29.54,12,4,18,0.60
2013-2-28,44,40,36,32,28,26,74,63,52,29.70,29.61,9,4,16,0.01
2013-3-1,43,39,35,30,26,21,69,61,48,29.88,29.70,12,6,18,0.00
2013-3-2,35,32,29,23,20,18,63,59,51,29.87,29.80,13,7,18,0.00
2013-3-3,38,32,29,21,19,16,71,57,48,29.89,29.80,16,8,22,0.00
2013-3-4,39,32,27,19,16,13,58,51,41,30.01,29.89,18,8,24,0.00
2013-3-5,49,37,26,25,18,10,64,48,21,30.05,29.80,6,2,11,0.00
2013-3-6,41,37,33,31,29,25,83,73,54,30.00,29.69,13,5,24,0.38
2013-3-7,46,40,32,30,27,23,72,61,48,30.15,30.00,16,6,23,0.04
2013-3-8,48,42,34,29,26,22,75,54,45,30.28,30.15,19,10,31,0.00
2013-3-9,59,44,29,29,23,19,67,46,22,30.31,30.23,4,1,8,0.00
2013-3-10,64,58,38,29,25,21,57,29,23,30.26,30.15,10,5,18,0.00
2013-3-11,60,52,44,47,37,22,72,58,32,30.17,29.83,11,4,22,0.00
2013-3-12,58,48,41,49,36,27,79,62,56,29.95,29.75,13,7,22,0.58
2013-3-13,47,39,31,29,23,16,68,52,38,30.03,29.88,16,7,27,0.02
2013-3-14,41,35,32,19,16,15,56,47,35,30.06,30.02,19,8,34,0.00
2013-3-15,55,43,29,33,24,15,60,48,37,30.06,29.75,11,4,20,0.00
2013-3-16,47,40,35,34,31,29,81,72,54,29.91,29.66,9,2,15,0.13
2013-3-17,41,37,34,31,26,21,81,64,48,30.23,29.90,11,3,18,0.01
2013-3-18,37,34,33,29,24,18,81,66,50,30.27,29.87,7,2,12,0.00
2013-3-19,54,41,33,37,27,13,84,63,23,29.87,29.70,17,5,27,0.31
2013-3-20,49,40,31,25,17,14,65,41,25,29.95,29.74,13,7,26,0.03
2013-3-21,36,31,26,23,13,7,64,48,35,29.85,29.76,15,7,25,0.00
2013-3-22,41,34,26,20,16,11,56,49,39,29.98,29.83,15,7,21,0.00
2013-3-23,50,37,25,25,20,15,68,51,32,30.00,29.89,14,4,19,0.00
2013-3-24,44,36,28,29,22,17,78,57,41,29.98,29.63,6,1,12,0.00
2013-3-25,36,35,33,31,29,28,82,81,78,29.67,29.51,3,1,6,0.46
2013-3-26,48,39,30,33,28,25,83,68,47,29.95,29.67,12,4,19,0.05
2013-3-27,48,43,37,33,28,25,71,56,45,30.10,30.00,17,8,24,0.04
2013-3-28,47,42,36,30,28,27,69,59,47,30.20,30.05,17,6,28,0.00
2013-3-29,55,48,39,33,29,27,64,49,36,30.23,30.11,11,4,16,0.00
2013-3-30,59,45,29,33,25,20,77,50,24,30.21,30.06,6,1,14,0.00
2013-3-31,48,46,42,42,39,31,83,77,54,29.95,29.72,5,1,10,0.19
2013-4-1,57,46,35,44,33,16,84,61,38,29.96,29.72,17,6,25,0.01
2013-4-2,44,37,28,20,16,13,59,44,29,30.15,29.96,17,5,23,0.00
2013-4-3,47,36,26,21,16,11,62,44,26,30.36,30.14,19,5,26,0.00
2013-4-4,49,37,24,18,14,10,61,40,24,30.38,30.03,6,2,15,0.00
2013-4-5,63,48,35,32,25,16,69,43,26,30.04,29.81,16,5,25,0.00
2013-4-6,55,44,31,26,21,16,63,41,22,30.30,30.04,13,3,18,0.00
2013-4-7,70,56,42,44,34,20,55,44,34,30.19,29.91,13,6,19,0.00
2013-4-8,79,68,54,50,45,41,66,45,31,30.05,29.90,9,2,16,0.00
2013-4-9,84,72,58,56,51,44,61,48,36,30.07,29.89,9,3,13,0.00
2013-4-10,88,76,63,60,54,49,61,48,32,29.94,29.75,11,4,18,0.00
2013-4-11,83,71,59,60,55,51,75,60,40,29.89,29.71,14,3,23,0.00
2013-4-12,60,55,50,52,48,37,84,79,60,29.78,29.59,11,5,21,0.67
2013-4-13,66,55,46,40,35,31,64,48,29,29.96,29.78,11,5,16,0.12
2013-4-14,66,53,40,39,34,31,72,50,31,30.13,29.96,6,2,16,0.00
2013-4-15,65,60,54,50,45,37,62,57,49,30.24,30.09,8,3,19,0.00
2013-4-16,75,65,56,59,52,44,75,65,55,30.25,30.06,11,5,17,0.00
2013-4-17,70,64,58,60,54,50,85,72,57,30.22,30.11,8,2,13,0.01
2013-4-18,75,66,61,62,56,51,80,70,58,30.20,29.94,8,3,18,0.01
2013-4-19,75,66,53,63,56,40,83,70,58,29.94,29.56,20,7,35,0.94
2013-4-20,56,49,40,40,30,25,62,48,37,30.34,29.78,14,7,21,0.89
2013-4-21,54,44,33,27,24,21,63,46,31,30.58,30.34,7,2,13,0.01
2013-4-22,59,47,33,34,30,26,77,53,35,30.55,30.36,6,2,14,0.00
2013-4-23,61,48,35,43,36,28,77,63,47,30.39,30.07,4,1,8,0.00
2013-4-24,76,58,40,57,46,34,81,68,45,30.08,29.71,15,4,27,0.08
2013-4-25,63,52,42,40,32,28,65,49,26,30.28,30.03,13,3,24,0.08
2013-4-26,65,52,42,36,33,30,69,48,28,30.45,30.28,7,2,11,0.00
2013-4-27,70,56,37,45,37,29,76,52,31,30.40,30.24,6,2,13,0.00
2013-4-28,62,55,51,48,41,-100,83,62,43,30.25,30.10,12,3,18,0.21
2013-4-29,62,56,53,56,50,46,83,80,70,30.11,30.02,5,1,10,0.22
2013-4-30,62,58,55,54,52,50,84,79,72,30.28,30.08,3,1,9,0.01
2013-5-1,72,61,52,51,40,30,82,50,24,30.39,30.27,5,1,10,0.00
2013-5-2,72,58,41,47,42,36,82,59,33,30.42,30.29,6,1,12,0.00
2013-5-3,70,58,45,48,43,39,78,58,35,30.37,30.25,5,2,13,0.00
2013-5-4,70,57,40,46,41,34,82,58,35,30.32,30.14,7,2,19,0.00
2013-5-5,67,55,44,43,39,36,75,57,36,30.23,30.11,6,2,11,0.00
2013-5-6,63,55,41,54,46,35,81,73,67,30.16,30.05,6,2,11,0.05
2013-5-7,63,61,58,58,55,52,84,81,76,30.06,29.94,7,2,12,0.87
2013-5-8,70,61,56,58,54,50,85,76,56,29.99,29.91,5,1,11,0.54
2013-5-9,74,62,53,59,54,48,85,75,57,29.99,29.90,5,1,9,0.01
2013-5-10,83,64,53,62,54,-100,84,73,43,30.00,29.85,11,2,19,0.60
2013-5-11,73,66,62,63,58,51,85,77,59,29.85,29.71,7,2,13,0.61
2013-5-12,63,55,44,50,35,-100,72,50,34,30.01,29.76,13,6,23,0.11
2013-5-13,56,48,40,32,29,24,65,49,31,30.15,30.00,11,4,20,0.03
2013-5-14,62,49,32,42,33,25,78,56,33,30.21,30.01,5,1,10,0.01
2013-5-15,84,63,49,66,51,42,80,66,50,30.01,29.65,9,2,17,0.00
2013-5-16,80,67,66,64,37,-100,80,62,42,29.93,29.73,8,2,15,0.06
2013-5-17,82,69,55,59,47,-100,83,59,37,30.12,29.93,4,1,10,0.03
2013-5-18,67,63,59,57,53,49,80,70,55,30.21,30.11,8,2,14,0.00
2013-5-19,71,65,60,62,58,53,83,79,73,30.19,30.07,5,1,9,0.00
2013-5-20,83,73,64,67,63,59,85,73,56,30.10,29.96,7,1,11,0.00
2013-5-21,88,77,65,70,66,59,84,71,53,29.98,29.84,6,2,16,0.00
2013-5-22,90,77,68,69,65,61,85,69,43,29.93,29.79,9,2,16,0.18
2013-5-23,78,70,64,66,63,58,84,78,64,29.88,29.71,8,3,14,0.25
2013-5-24,65,55,47,60,44,32,85,66,50,30.17,29.74,17,9,30,0.08
2013-5-25,65,53,42,40,35,32,69,51,35,30.19,30.08,18,6,25,0.00
2013-5-26,70,58,43,42,37,32,67,47,29,30.21,30.12,14,3,19,0.00
2013-5-27,68,58,42,49,42,35,78,58,39,30.28,30.16,5,1,10,0.00
2013-5-28,78,65,57,64,56,49,83,73,58,30.19,30.03,6,1,9,0.05
2013-5-29,89,74,60,68,62,56,87,67,43,30.10,30.04,8,3,16,0.01
2013-5-30,91,79,66,68,64,60,82,62,41,30.18,30.07,6,1,10,0.01
2013-5-31,90,80,68,66,63,59,77,58,36,30.14,30.00,9,3,16,0.00
2013-6-1,90,81,70,70,65,61,75,59,46,30.03,29.88,11,3,18,0.00
2013-6-2,83,76,72,69,64,-100,81,68,59,29.88,29.81,8,4,13,0.01
2013-6-3,78,71,63,66,61,50,85,71,51,29.97,29.84,8,3,15,0.24
2013-6-4,76,64,48,50,46,38,70,53,36,30.12,29.97,10,2,15,0.01
2013-6-5,78,67,51,57,52,45,82,61,41,30.17,30.01,10,2,16,0.00
2013-6-6,70,66,61,61,55,46,85,71,51,30.03,29.85,6,2,13,0.70
2013-6-7,68,66,63,63,61,58,86,84,81,29.85,29.65,7,3,12,0.21
2013-6-8,78,70,64,62,58,55,83,68,52,30.10,29.73,6,2,12,0.06
2013-6-9,81,71,60,66,61,54,83,71,54,30.19,30.08,5,1,11,0.05
2013-6-10,79,72,69,71,66,61,86,82,71,30.10,29.76,8,2,16,1.08
2013-6-11,80,72,65,66,63,61,86,74,59,29.85,29.77,8,3,16,0.54
2013-6-12,88,77,67,68,64,60,79,66,45,29.87,29.77,9,1,14,0.01
2013-6-13,81,73,68,67,63,54,84,72,60,29.80,29.48,16,4,27,0.54
2013-6-14,78,70,62,56,54,51,71,58,41,29.98,29.62,13,6,19,0.09
2013-6-15,81,70,58,60,53,48,81,58,33,30.09,29.97,8,2,14,0.00
2013-6-16,80,71,62,67,60,50,78,68,60,30.02,29.87,8,2,15,0.02
2013-6-17,86,77,68,69,64,60,76,65,51,29.95,29.86,5,1,14,0.02
2013-6-18,78,72,67,68,64,61,83,76,67,29.91,29.79,5,1,9,0.01
2013-6-19,79,70,61,60,56,51,84,63,40,30.13,29.90,7,2,21,0.55
2013-6-20,80,67,57,64,58,52,83,74,53,30.24,30.13,9,2,16,0.00
2013-6-22,86,83,76,69,65,62,68,56,48,30.23,30.09,6,3,13,0.00
2013-6-23,87,78,67,72,66,62,84,69,50,30.18,30.05,5,2,9,0.00
2013-6-24,90,77,71,71,66,61,79,70,42,30.12,30.03,16,2,22,0.00
2013-6-25,91,80,70,74,67,61,82,65,46,30.03,29.87,7,2,14,0.00
2013-6-26,88,76,67,73,66,61,81,70,54,29.94,29.81,8,2,13,0.00
2013-6-27,79,72,68,72,66,63,85,80,72,29.83,29.61,4,1,9,0.44
2013-6-28,84,75,70,70,65,62,80,72,55,29.61,29.48,6,2,22,0.16
2013-6-29,86,78,68,65,63,60,84,62,43,29.70,29.58,6,2,16,0.15
2013-6-30,87,74,65,72,66,60,86,77,56,29.84,29.69,9,1,13,0.24
2013-7-1,83,75,71,71,68,66,86,78,62,29.96,29.83,8,2,17,0.30
2013-7-2,85,78,74,72,69,67,83,75,61,30.13,29.96,11,4,17,0.02
2013-7-3,84,78,74,73,70,67,80,75,64,30.21,30.13,5,3,11,0.02
2013-7-4,89,82,73,73,70,68,83,69,56,30.23,30.14,10,4,20,0.02
2013-7-5,89,81,75,73,70,68,80,69,55,30.20,30.09,9,4,17,0.02
2013-7-6,92,82,73,73,70,66,82,68,48,30.18,30.04,8,3,14,0.00
2013-7-7,90,78,70,72,68,65,85,73,54,30.09,30.00,15,2,20,0.91
2013-7-8,86,74,69,70,67,65,86,78,54,30.11,30.03,3,1,9,0.04
2013-7-9,85,77,72,72,68,65,82,75,64,30.11,29.98,6,2,11,0.19
2013-7-10,85,77,74,72,66,-100,80,71,62,30.00,29.85,9,2,17,0.04
2013-7-11,85,77,71,68,65,63,80,68,54,29.93,29.84,7,2,12,0.01
2013-7-12,77,71,67,66,63,62,84,76,66,30.06,29.92,8,2,13,0.15
2013-7-13,84,76,69,70,67,64,85,74,61,30.26,30.05,6,2,10,0.08
2013-7-14,89,81,73,72,70,67,84,70,52,30.34,30.26,8,2,12,0.02
2013-7-15,93,81,71,73,69,66,85,70,46,30.31,30.19,5,1,11,0.00
2013-7-16,93,83,76,74,70,66,80,65,41,30.27,30.18,7,2,12,0.00
2013-7-17,95,82,74,73,69,67,81,67,42,30.24,30.09,7,1,11,0.00
2013-7-18,97,85,75,76,72,69,83,67,48,30.13,30.00,3,1,9,0.00
2013-7-19,96,83,72,77,72,67,84,72,47,30.01,29.85,7,2,15,1.68
2013-7-20,87,79,72,76,68,-100,84,69,56,29.89,29.80,6,2,13,0.19
2013-7-21,86,78,70,72,68,63,85,73,58,29.95,29.88,6,1,11,0.11
2013-7-22,86,75,70,73,69,65,86,81,60,29.95,29.76,4,1,9,0.42
2013-7-23,86,77,72,71,68,65,86,74,53,29.77,29.66,6,1,15,0.01
2013-7-24,79,74,66,65,61,55,80,63,47,29.94,29.69,11,4,16,0.01
2013-7-25,78,67,55,59,54,49,80,64,48,30.04,29.94,8,2,13,0.00
2013-7-26,83,70,57,60,56,52,84,65,37,30.10,30.01,4,0,7,0.00
2013-7-27,80,73,61,71,64,55,83,75,65,30.04,29.90,6,2,10,0.29
2013-7-28,85,75,68,68,65,61,82,72,48,29.98,29.87,7,2,12,0.14
2013-7-29,79,69,58,62,56,51,82,64,43,30.16,29.99,5,1,11,0.00
2013-7-30,82,70,58,62,57,52,82,64,44,30.23,30.13,6,0,12,0.00
2013-7-31,80,72,62,67,62,56,82,72,61,30.15,29.99,8,2,14,0.03
2013-8-1,83,74,69,70,66,63,85,76,59,29.99,29.81,7,2,10,0.17
2013-8-2,83,72,64,65,62,59,85,74,47,29.96,29.86,6,1,11,0.01
2013-8-3,77,71,67,66,64,61,83,78,68,29.96,29.91,7,2,10,0.05
2013-8-4,79,69,59,61,55,50,85,64,41,30.04,29.93,12,3,19,0.01
2013-8-5,80,68,56,57,53,49,80,60,38,30.11,30.00,4,0,10,0.01
2013-8-6,79,68,62,67,60,55,83,76,60,30.06,29.99,6,1,9,0.09
2013-8-7,83,74,69,71,67,63,84,78,64,30.06,29.97,7,2,12,0.11
2013-8-8,83,75,68,72,68,63,86,81,69,30.02,29.96,6,2,14,0.13
2013-8-9,85,77,74,74,71,68,85,80,68,29.97,29.87,6,2,12,0.21
2013-8-10,83,76,68,68,64,61,85,68,51,30.08,29.96,4,1,8,0.01
2013-8-11,86,75,65,70,64,60,84,71,52,30.11,29.98,6,2,9,0.04
2013-8-12,87,75,67,69,65,62,86,73,48,30.03,29.91,3,0,8,0.04
2013-8-13,84,74,69,69,62,-100,85,69,55,29.91,29.74,11,3,18,0.90
2013-8-21,88,74,61,72,64,56,85,72,56,30.19,30.06,6,1,13,0.01
2013-8-22,87,77,69,70,65,60,83,67,51,30.09,29.93,5,1,11,0.00
2013-8-23,78,71,66,67,64,60,83,77,66,30.13,29.95,2,0,5,0.07
2013-8-24,83,70,57,61,56,52,86,65,37,30.33,30.13,6,1,9,0.01
2013-8-25,82,69,55,64,54,-100,83,64,44,30.40,30.24,6,1,11,0.01
2013-8-26,87,75,62,65,61,56,81,64,47,30.26,29.99,6,2,12,0.00
2013-8-27,91,79,73,70,66,63,73,64,49,29.99,29.89,7,2,13,0.00
2013-9-1,90,76,69,71,65,-100,84,71,51,29.85,29.76,5,1,10,0.54
2013-9-2,90,78,70,72,68,65,86,72,52,29.81,29.71,6,1,13,0.71
2013-9-3,81,74,63,66,59,53,78,62,43,29.98,29.73,11,3,18,0.05
2013-9-4,82,69,56,57,53,49,80,60,38,30.10,29.97,4,1,9,0.00
2013-9-5,80,69,61,62,54,45,78,59,36,30.13,30.02,9,2,16,0.00
2013-9-6,75,63,51,49,46,43,77,57,37,30.27,30.13,5,1,9,0.00
2013-9-7,82,64,48,57,51,42,82,64,40,30.14,29.93,4,1,11,0.00
2013-9-8,85,71,64,65,57,-100,82,64,52,30.05,29.89,9,2,14,0.02
2013-9-9,76,67,59,63,54,47,75,63,49,30.21,30.06,5,1,10,0.01
2013-9-11,94,82,73,74,70,67,83,69,50,30.14,30.00,7,2,12,0.02
2013-9-12,91,77,70,72,67,60,83,71,52,30.00,29.74,7,2,13,0.28
2013-9-13,74,66,56,63,54,44,80,64,45,29.97,29.73,13,5,23,0.01
2013-9-14,66,56,45,46,43,39,81,62,44,30.15,29.96,11,2,15,0.00
2013-9-15,77,57,44,55,44,-100,83,67,43,30.22,30.05,7,1,12,0.00
2013-9-16,73,64,57,56,53,49,83,70,46,30.24,30.02,7,1,13,0.17
2013-9-17,69,57,44,50,41,37,78,59,34,30.42,30.25,4,1,9,0.01
2013-9-18,49,44,41,43,38,36,82,79,71,30.33,30.30,1,0,3,0.00
2013-9-19,77,62,47,58,50,41,82,68,49,30.18,30.05,4,0,11,0.00
2013-9-20,81,68,52,62,56,47,85,69,50,30.07,29.92,5,1,11,0.00
2013-9-21,70,66,61,62,59,56,85,79,72,29.93,29.68,12,4,18,1.00
2013-10-2,85,70,58,62,57,52,81,64,42,30.08,29.99,7,1,10,0.00
2013-10-3,84,71,60,64,60,54,81,67,49,30.13,30.03,3,0,9,0.00
2013-10-4,87,74,62,65,62,56,84,68,47,30.10,30.00,4,1,10,0.00
2013-10-5,88,77,66,66,63,60,81,64,46,30.09,29.98,7,1,13,0.00
2013-10-6,89,76,63,66,62,57,84,64,41,30.01,29.87,11,3,19,0.00
2013-10-7,75,66,53,65,56,42,84,71,49,30.06,29.72,9,3,18,0.96
2013-10-8,69,58,47,48,43,40,78,60,39,30.29,30.06,9,1,17,0.03
2013-10-9,63,55,47,48,43,39,80,66,42,30.35,30.26,5,1,9,0.00
2013-10-10,56,54,53,50,47,43,84,75,65,30.25,30.04,9,5,16,2.59
2013-10-18,66,57,46,45,42,39,76,58,38,30.00,29.85,7,2,17,0.10
2013-10-19,61,51,40,52,43,35,83,75,61,29.98,29.76,7,2,16,0.08
2013-10-20,63,50,40,40,34,-100,76,57,41,30.07,29.87,9,2,16,0.03
2013-10-21,68,52,36,44,38,31,82,62,37,30.12,29.91,9,2,15,0.00
2013-10-22,60,52,42,46,39,28,77,61,42,29.91,29.81,9,2,18,0.00
2013-10-23,52,44,35,37,33,29,80,66,48,29.88,29.67,9,2,15,0.00
2013-10-24,50,43,36,33,30,26,74,61,44,30.11,29.88,10,2,17,0.00
2013-10-25,52,44,36,33,30,26,71,57,45,30.28,30.11,13,4,22,0.00
2013-10-26,55,44,31,32,28,24,75,56,34,30.27,29.90,11,3,20,0.00
2013-10-27,58,48,38,36,29,-100,70,51,36,30.12,29.93,9,2,14,0.00
2013-10-28,61,44,31,40,31,-100,80,65,40,30.26,30.12,2,0,6,0.00
2013-10-29,63,48,37,41,36,30,77,65,42,30.39,30.26,4,1,6,0.00
2013-10-30,69,55,45,51,45,37,81,70,51,30.29,30.12,3,0,5,0.00